createdAt,value
2019-03-09T00:00:47.789Z,3.90
2019-03-09T00:03:19.657Z,3.94
2019-03-09T00:05:51.692Z,3.95
2019-03-09T00:08:23.472Z,3.98
2019-03-09T00:10:55.825Z,4.00
2019-03-09T00:13:28.030Z,3.99
2019-03-09T00:16:00.175Z,3.99
2019-03-09T00:18:31.979Z,3.97
2019-03-09T00:21:06.307Z,3.90
2019-03-09T00:24:01.825Z,3.82
2019-03-09T00:26:49.165Z,3.74
2019-03-09T00:29:43.940Z,3.71
2019-03-09T00:32:21.297Z,3.69
2019-03-09T00:34:54.088Z,3.77
2019-03-09T00:37:27.834Z,3.83
2019-03-09T00:40:03.086Z,3.82
2019-03-09T00:42:37.742Z,3.78
2019-03-09T00:45:11.137Z,3.72
2019-03-09T00:47:46.302Z,3.53
2019-03-09T00:50:23.009Z,3.43
2019-03-09T00:52:56.723Z,3.37
2019-03-09T00:55:32.667Z,3.28
2019-03-09T00:58:06.639Z,3.20
2019-03-09T01:00:40.822Z,3.12
2019-03-09T01:03:13.951Z,3.07
2019-03-09T01:05:48.605Z,3.02
2019-03-09T01:08:22.034Z,2.96
2019-03-09T01:10:55.553Z,2.94
2019-03-09T01:13:28.938Z,2.83
2019-03-09T01:16:02.630Z,2.71
2019-03-09T01:18:35.432Z,2.64
2019-03-09T01:21:08.429Z,2.60
2019-03-09T01:23:43.169Z,2.61
2019-03-09T01:26:19.266Z,2.59
2019-03-09T01:28:52.814Z,2.61
2019-03-09T01:31:25.511Z,2.56
2019-03-09T01:33:59.613Z,2.50
2019-03-09T01:36:35.364Z,2.51
2019-03-09T01:39:09.451Z,2.53
2019-03-09T01:41:43.956Z,2.53
2019-03-09T01:44:18.324Z,2.48
2019-03-09T01:46:51.760Z,2.43
2019-03-09T01:49:28.262Z,2.43
2019-03-09T01:52:03.456Z,2.39
2019-03-09T01:54:38.733Z,2.38
2019-03-09T01:57:13.618Z,2.31
2019-03-09T01:59:47.535Z,2.25
2019-03-09T02:02:23.416Z,2.18
2019-03-09T02:04:55.815Z,2.14
2019-03-09T02:07:29.420Z,2.00
2019-03-09T02:10:02.085Z,1.86
2019-03-09T02:12:35.346Z,1.77
2019-03-09T02:15:07.394Z,1.74
2019-03-09T02:17:39.173Z,1.75
2019-03-09T02:20:11.129Z,1.75
2019-03-09T02:22:42.844Z,1.72
2019-03-09T02:25:14.760Z,1.70
2019-03-09T02:27:46.901Z,1.70
2019-03-09T02:30:18.496Z,1.68
2019-03-09T02:32:50.352Z,1.59
2019-03-09T02:35:21.799Z,1.53
2019-03-09T02:37:53.398Z,1.50
2019-03-09T02:40:26.047Z,1.48
2019-03-09T02:42:57.674Z,1.49
2019-03-09T02:45:30.815Z,1.48
2019-03-09T02:48:02.438Z,1.43
2019-03-09T02:50:34.070Z,1.41
2019-03-09T02:53:05.687Z,1.42
2019-03-09T02:55:37.555Z,1.41
2019-03-09T02:58:09.419Z,1.39
2019-03-09T03:00:46.438Z,1.41
2019-03-09T03:03:18.027Z,1.41
2019-03-09T03:05:49.624Z,1.38
2019-03-09T03:08:21.165Z,1.30
2019-03-09T03:10:52.871Z,1.22
2019-03-09T03:13:24.559Z,1.17
2019-03-09T03:15:56.134Z,1.19
2019-03-09T03:18:27.717Z,1.27
2019-03-09T03:20:59.447Z,1.34
2019-03-09T03:23:31.048Z,1.25
2019-03-09T03:26:02.820Z,1.17
2019-03-09T03:28:34.643Z,1.09
2019-03-09T03:31:06.374Z,0.99
2019-03-09T03:33:37.966Z,0.88
2019-03-09T03:36:09.833Z,0.83
2019-03-09T03:38:41.583Z,0.80
2019-03-09T03:41:13.245Z,0.85
2019-03-09T03:43:44.791Z,0.85
2019-03-09T03:46:16.563Z,0.91
2019-03-09T03:48:48.181Z,0.90
2019-03-09T03:51:20.052Z,0.93
2019-03-09T03:53:51.783Z,0.90
2019-03-09T03:56:24.595Z,0.84
2019-03-09T03:58:56.372Z,0.87
2019-03-09T04:01:28.106Z,0.79
2019-03-09T04:03:59.804Z,0.75
2019-03-09T04:06:32.191Z,0.65
2019-03-09T04:09:04.981Z,0.48
2019-03-09T04:11:37.094Z,0.40
2019-03-09T04:14:08.667Z,0.36
2019-03-09T04:16:40.215Z,0.36
2019-03-09T04:19:11.840Z,0.37
2019-03-09T04:21:43.937Z,0.41
2019-03-09T04:24:15.536Z,0.47
2019-03-09T04:26:47.168Z,0.51
2019-03-09T04:29:18.766Z,0.55
2019-03-09T04:31:50.503Z,0.63
2019-03-09T04:34:22.104Z,0.65
2019-03-09T04:37:00.869Z,0.66
2019-03-09T04:39:32.607Z,0.58
2019-03-09T04:42:04.057Z,0.48
2019-03-09T04:44:35.781Z,0.42
2019-03-09T04:47:07.430Z,0.43
2019-03-09T04:49:38.831Z,0.34
2019-03-09T04:52:10.491Z,0.26
2019-03-09T04:54:42.121Z,0.35
2019-03-09T04:57:13.635Z,0.50
2019-03-09T04:59:45.255Z,0.56
2019-03-09T05:02:16.802Z,0.60
2019-03-09T05:04:51.275Z,0.57
2019-03-09T05:07:42.580Z,0.73
2019-03-09T05:10:22.423Z,0.88
2019-03-09T05:12:58.399Z,0.65
2019-03-09T05:15:30.004Z,0.46
2019-03-09T05:18:01.694Z,0.48
2019-03-09T05:20:33.353Z,0.51
2019-03-09T05:23:04.849Z,0.32
2019-03-09T05:25:36.460Z,0.19
2019-03-09T05:28:08.002Z,0.09
2019-03-09T05:30:44.254Z,0.01
2019-03-09T05:33:15.851Z,-0.01
2019-03-09T05:35:47.977Z,0.06
2019-03-09T05:38:20.060Z,0.10
2019-03-09T05:40:51.691Z,0.12
2019-03-09T05:43:23.367Z,0.13
2019-03-09T05:45:54.790Z,0.15
2019-03-09T05:48:26.451Z,0.27
2019-03-09T05:50:58.075Z,0.36
2019-03-09T05:53:29.744Z,0.36
2019-03-09T05:56:01.254Z,0.42
2019-03-09T05:58:33.122Z,0.51
2019-03-09T06:01:04.956Z,0.65
2019-03-09T06:03:36.901Z,0.68
2019-03-09T06:06:17.775Z,1.43
2019-03-09T06:08:51.098Z,2.51
2019-03-09T06:11:23.025Z,3.37
2019-03-09T06:13:54.584Z,4.13
2019-03-09T06:16:26.177Z,4.87
2019-03-09T06:18:57.731Z,5.49
2019-03-09T06:21:29.215Z,5.70
2019-03-09T06:24:01.276Z,6.33
2019-03-09T06:26:32.845Z,6.36
2019-03-09T06:29:04.711Z,7.54
2019-03-09T06:31:36.401Z,7.56
2019-03-09T06:34:08.038Z,8.23
2019-03-09T06:37:02.263Z,8.33
2019-03-09T06:39:38.652Z,9.23
2019-03-09T06:42:50.145Z,9.88
2019-03-09T06:45:22.673Z,10.60
2019-03-09T06:47:54.265Z,11.00
2019-03-09T06:50:26.195Z,11.37
2019-03-09T06:52:57.933Z,10.60
2019-03-09T06:55:29.686Z,11.80
2019-03-09T06:58:01.776Z,12.27
2019-03-09T07:00:42.779Z,11.92
2019-03-09T07:03:14.897Z,9.85
2019-03-09T07:05:46.662Z,12.19
2019-03-09T07:08:18.297Z,12.98
2019-03-09T07:10:49.878Z,13.95
2019-03-09T07:13:21.409Z,13.62
2019-03-09T07:15:53.072Z,13.92
2019-03-09T07:18:44.974Z,14.60
2019-03-09T07:21:16.941Z,14.56
2019-03-09T07:23:48.643Z,14.35
2019-03-09T07:26:20.406Z,15.12
2019-03-09T07:28:52.036Z,16.01
2019-03-09T07:31:24.321Z,16.77
2019-03-09T07:34:24.887Z,17.58
2019-03-09T07:36:56.714Z,17.46
2019-03-09T07:39:28.318Z,17.68
2019-03-09T07:41:59.987Z,17.89
2019-03-09T07:44:31.541Z,17.93
2019-03-09T07:47:03.291Z,16.87
2019-03-09T07:49:35.180Z,17.95
2019-03-09T07:52:38.448Z,18.87
2019-03-09T07:55:13.568Z,18.98
2019-03-09T07:57:45.693Z,19.98
2019-03-09T08:00:19.538Z,20.56
2019-03-09T08:02:51.403Z,20.30
2019-03-09T08:05:22.918Z,20.96
2019-03-09T08:07:55.257Z,21.66
2019-03-09T08:10:27.023Z,21.87
2019-03-09T08:12:58.894Z,22.51
2019-03-09T08:15:31.049Z,22.97
2019-03-09T08:18:02.662Z,23.04
2019-03-09T08:20:34.247Z,23.23
2019-03-09T08:23:06.004Z,23.86
2019-03-09T08:25:38.456Z,23.54
2019-03-09T08:28:10.432Z,24.13
2019-03-09T08:30:42.384Z,23.45
2019-03-09T08:33:14.321Z,24.23
2019-03-09T08:35:46.000Z,22.36
2019-03-09T08:38:17.562Z,21.21
2019-03-09T08:40:49.515Z,22.48
2019-03-09T08:43:21.195Z,22.80
2019-03-09T08:45:53.039Z,23.72
2019-03-09T08:48:25.325Z,23.93
2019-03-09T08:50:57.757Z,25.07
2019-03-09T08:53:31.283Z,25.95
2019-03-09T08:56:03.240Z,25.68
2019-03-09T08:58:35.133Z,25.87
2019-03-09T09:01:08.963Z,26.18
2019-03-09T09:03:40.938Z,26.41
2019-03-09T09:06:12.780Z,26.51
2019-03-09T09:08:44.548Z,27.32
2019-03-09T09:11:17.711Z,27.71
2019-03-09T09:13:50.155Z,27.26
2019-03-09T09:16:21.806Z,27.66
2019-03-09T09:18:53.518Z,28.00
2019-03-09T09:21:25.195Z,28.57
2019-03-09T09:23:56.809Z,28.01
2019-03-09T09:26:28.672Z,26.56
2019-03-09T09:29:00.506Z,25.56
2019-03-09T09:31:32.209Z,25.30
2019-03-09T09:34:04.365Z,24.40
2019-03-09T09:36:37.847Z,24.92
2019-03-09T09:39:10.683Z,25.49
2019-03-09T09:41:42.630Z,25.39
2019-03-09T09:44:14.381Z,26.26
2019-03-09T09:46:46.022Z,25.35
2019-03-09T09:49:18.026Z,26.10
2019-03-09T09:51:49.938Z,21.73
2019-03-09T09:54:21.523Z,23.40
2019-03-09T09:56:54.565Z,22.74
2019-03-09T09:59:26.336Z,24.52
2019-03-09T10:01:58.220Z,24.25
2019-03-09T10:04:30.020Z,24.40
2019-03-09T10:07:01.846Z,23.85
2019-03-09T10:09:33.914Z,22.21
2019-03-09T10:12:05.982Z,20.99
2019-03-09T10:14:37.581Z,23.07
2019-03-09T10:17:09.542Z,23.16
2019-03-09T10:19:41.190Z,24.34
2019-03-09T10:22:14.480Z,23.21
2019-03-09T10:24:46.552Z,25.95
2019-03-09T10:27:18.623Z,26.27
2019-03-09T10:29:50.142Z,26.32
2019-03-09T10:32:22.085Z,24.54
2019-03-09T10:34:53.939Z,25.55
2019-03-09T10:37:25.923Z,25.89
2019-03-09T10:39:58.009Z,27.29
2019-03-09T10:42:29.726Z,28.51
2019-03-09T10:45:03.420Z,29.08
2019-03-09T10:47:35.034Z,23.67
2019-03-09T10:50:08.798Z,25.41
2019-03-09T10:52:40.510Z,26.79
2019-03-09T10:55:16.310Z,27.52
2019-03-09T10:57:48.166Z,28.21
2019-03-09T11:00:31.139Z,26.04
2019-03-09T11:03:03.009Z,26.83
2019-03-09T11:05:34.973Z,26.82
2019-03-09T11:08:07.116Z,26.11
2019-03-09T11:10:38.883Z,23.38
2019-03-09T11:13:11.521Z,22.65
2019-03-09T11:15:43.991Z,21.32
2019-03-09T11:18:15.691Z,20.18
2019-03-09T11:20:48.309Z,19.59
2019-03-09T11:23:20.620Z,21.60
2019-03-09T11:25:52.556Z,24.26
2019-03-09T11:28:24.497Z,22.41
2019-03-09T11:30:56.229Z,24.17
2019-03-09T11:33:28.086Z,23.51
2019-03-09T11:35:59.990Z,23.63
2019-03-09T11:38:31.700Z,22.89
2019-03-09T11:41:03.534Z,22.24
2019-03-09T11:43:35.274Z,21.96
2019-03-09T11:46:07.693Z,21.65
2019-03-09T11:48:42.772Z,21.39
2019-03-09T11:51:14.774Z,22.80
2019-03-09T11:53:46.551Z,25.66
2019-03-09T11:56:19.613Z,27.28
2019-03-09T11:58:51.219Z,28.17
2019-03-09T12:01:23.547Z,26.47
2019-03-09T12:03:55.860Z,24.69
2019-03-09T12:06:28.477Z,24.97
2019-03-09T12:09:00.938Z,24.21
2019-03-09T12:11:32.605Z,23.32
2019-03-09T12:14:04.596Z,23.67
2019-03-09T12:16:36.238Z,25.05
2019-03-09T12:19:08.183Z,24.62
2019-03-09T12:21:40.034Z,23.61
2019-03-09T12:24:16.394Z,22.81
2019-03-09T12:26:48.863Z,22.46
2019-03-09T12:29:20.657Z,22.11
2019-03-09T12:31:52.392Z,22.10
2019-03-09T12:34:24.378Z,22.08
2019-03-09T12:36:57.219Z,22.43
2019-03-09T12:39:28.943Z,22.38
2019-03-09T12:42:00.759Z,21.86
2019-03-09T12:44:33.583Z,22.11
2019-03-09T12:47:05.697Z,22.70
2019-03-09T12:49:37.688Z,22.55
2019-03-09T12:52:10.274Z,21.99
2019-03-09T12:54:42.179Z,21.20
2019-03-09T12:57:13.822Z,21.54
2019-03-09T12:59:45.707Z,21.32
2019-03-09T13:02:18.051Z,22.26
2019-03-09T13:04:51.169Z,23.71
2019-03-09T13:07:24.652Z,24.01
2019-03-09T13:09:56.853Z,24.84
2019-03-09T13:12:28.559Z,25.09
2019-03-09T13:15:00.412Z,24.90
2019-03-09T13:17:35.071Z,24.63
2019-03-09T13:20:07.133Z,25.19
2019-03-09T13:22:39.070Z,24.02
2019-03-09T13:25:11.547Z,24.66
2019-03-09T13:27:43.588Z,25.04
2019-03-09T13:30:18.455Z,25.47
2019-03-09T13:32:50.420Z,23.74
2019-03-09T13:35:22.452Z,24.92
2019-03-09T13:37:54.427Z,25.61
2019-03-09T13:40:26.576Z,26.00
2019-03-09T13:42:58.619Z,26.17
2019-03-09T13:45:30.928Z,23.72
2019-03-09T13:48:02.620Z,23.37
2019-03-09T13:50:34.943Z,22.47
2019-03-09T13:53:09.251Z,21.76
2019-03-09T13:55:41.208Z,21.70
2019-03-09T13:58:14.935Z,20.84
2019-03-09T14:00:47.419Z,22.10
2019-03-09T14:03:20.122Z,23.13
2019-03-09T14:05:52.341Z,24.20
2019-03-09T14:08:25.214Z,22.61
2019-03-09T14:10:58.008Z,22.38
2019-03-09T14:13:30.142Z,22.71
2019-03-09T14:16:02.046Z,23.34
2019-03-09T14:18:34.642Z,23.13
2019-03-09T14:21:06.724Z,23.01
2019-03-09T14:23:39.031Z,23.57
2019-03-09T14:26:12.008Z,23.65
2019-03-09T14:28:43.996Z,23.51
2019-03-09T14:31:17.821Z,23.24
2019-03-09T14:33:50.747Z,23.53
2019-03-09T14:36:23.696Z,23.84
2019-03-09T14:38:57.650Z,23.77
2019-03-09T14:41:30.434Z,24.05
2019-03-09T14:44:02.092Z,24.18
2019-03-09T14:46:34.038Z,22.65
2019-03-09T14:49:06.822Z,22.67
2019-03-09T14:51:38.916Z,23.08
2019-03-09T14:54:11.545Z,22.64
2019-03-09T14:56:43.421Z,22.80
2019-03-09T14:59:16.346Z,22.49
2019-03-09T15:01:48.899Z,21.79
2019-03-09T15:04:21.044Z,21.75
2019-03-09T15:06:53.051Z,22.02
2019-03-09T15:09:25.322Z,22.52
2019-03-09T15:11:57.713Z,22.23
2019-03-09T15:14:29.429Z,22.48
2019-03-09T15:17:02.407Z,22.64
2019-03-09T15:19:35.998Z,22.69
2019-03-09T15:22:07.990Z,22.39
2019-03-09T15:24:40.178Z,22.58
2019-03-09T15:27:12.221Z,22.15
2019-03-09T15:29:44.576Z,21.54
2019-03-09T15:32:17.416Z,22.07
2019-03-09T15:34:50.396Z,21.53
2019-03-09T15:37:22.467Z,20.88
2019-03-09T15:39:54.346Z,21.46
2019-03-09T15:42:28.031Z,21.86
2019-03-09T15:45:00.113Z,21.85
2019-03-09T15:47:32.990Z,21.59
2019-03-09T15:50:05.139Z,21.42
2019-03-09T15:52:37.014Z,21.12
2019-03-09T15:55:09.997Z,20.58
2019-03-09T15:57:42.137Z,20.14
2019-03-09T16:00:20.039Z,19.74
2019-03-09T16:02:52.597Z,19.49
2019-03-09T16:05:27.222Z,19.53
2019-03-09T16:08:01.163Z,19.21
2019-03-09T16:10:35.103Z,19.08
2019-03-09T16:13:09.425Z,19.19
2019-03-09T16:15:46.103Z,18.64
2019-03-09T16:18:19.771Z,18.34
2019-03-09T16:20:52.905Z,17.73
2019-03-09T16:23:26.889Z,17.52
2019-03-09T16:26:00.868Z,17.17
2019-03-09T16:28:35.236Z,16.95
2019-03-09T16:31:08.831Z,16.74
2019-03-09T16:33:42.811Z,16.69
2019-03-09T16:36:16.881Z,16.67
2019-03-09T16:38:50.375Z,16.59
2019-03-09T16:41:23.381Z,16.48
2019-03-09T16:43:56.690Z,16.35
2019-03-09T16:46:29.841Z,16.18
2019-03-09T16:49:03.465Z,16.04
2019-03-09T16:51:36.771Z,15.92
2019-03-09T16:54:10.465Z,15.78
2019-03-09T16:56:43.509Z,15.68
2019-03-09T16:59:16.692Z,15.61
2019-03-09T17:01:49.888Z,15.54
2019-03-09T17:04:23.124Z,15.43
2019-03-09T17:06:55.621Z,15.35
2019-03-09T17:09:29.084Z,15.22
2019-03-09T17:12:02.812Z,15.07
2019-03-09T17:14:36.441Z,14.97
2019-03-09T17:17:10.583Z,14.88
2019-03-09T17:19:45.430Z,14.75
2019-03-09T17:22:19.103Z,14.63
2019-03-09T17:24:52.438Z,14.52
2019-03-09T17:27:29.469Z,14.38
2019-03-09T17:30:03.271Z,14.27
2019-03-09T17:32:36.942Z,14.13
2019-03-09T17:35:10.610Z,14.02
2019-03-09T17:37:45.513Z,13.82
2019-03-09T17:40:20.186Z,13.69
2019-03-09T17:42:54.404Z,13.53
2019-03-09T17:45:28.528Z,13.35
2019-03-09T17:48:02.290Z,13.22
2019-03-09T17:50:36.244Z,13.14
2019-03-09T17:53:10.467Z,12.98
2019-03-09T17:55:44.419Z,12.86
2019-03-09T17:58:18.373Z,12.76
2019-03-09T18:00:52.761Z,12.70
2019-03-09T18:03:26.015Z,12.61
2019-03-09T18:06:00.731Z,12.54
2019-03-09T18:08:33.640Z,12.47
2019-03-09T18:11:08.020Z,12.45
2019-03-09T18:13:40.586Z,12.30
2019-03-09T18:16:17.918Z,12.28
2019-03-09T18:18:51.397Z,12.19
2019-03-09T18:21:23.998Z,12.19
2019-03-09T18:23:55.833Z,12.16
2019-03-09T18:26:27.935Z,12.09
2019-03-09T18:29:00.440Z,11.98
2019-03-09T18:31:32.378Z,11.92
2019-03-09T18:34:05.625Z,11.80
2019-03-09T18:36:37.892Z,11.77
2019-03-09T18:39:10.814Z,11.71
2019-03-09T18:41:42.897Z,11.55
2019-03-09T18:44:15.236Z,11.53
2019-03-09T18:46:47.156Z,11.42
2019-03-09T18:49:19.077Z,11.32
2019-03-09T18:51:53.066Z,11.22
2019-03-09T18:54:25.849Z,11.08
2019-03-09T18:56:58.250Z,10.97
2019-03-09T18:59:30.219Z,10.87
2019-03-09T19:02:02.535Z,10.83
2019-03-09T19:04:35.852Z,10.75
2019-03-09T19:07:08.543Z,10.71
2019-03-09T19:09:40.706Z,10.71
2019-03-09T19:12:13.045Z,10.53
2019-03-09T19:14:45.748Z,10.51
2019-03-09T19:17:18.189Z,10.42
2019-03-09T19:19:50.870Z,10.32
2019-03-09T19:22:23.864Z,10.25
2019-03-09T19:24:56.713Z,10.17
2019-03-09T19:27:31.177Z,10.11
2019-03-09T19:30:03.637Z,10.01
2019-03-09T19:32:36.504Z,9.99
2019-03-09T19:35:09.189Z,9.89
2019-03-09T19:37:41.543Z,9.73
2019-03-09T19:40:16.220Z,9.64
2019-03-09T19:42:49.538Z,9.51
2019-03-09T19:45:22.892Z,9.44
2019-03-09T19:47:56.005Z,9.33
2019-03-09T19:50:28.538Z,9.13
2019-03-09T19:53:01.311Z,8.98
2019-03-09T19:55:34.372Z,9.15
2019-03-09T19:58:07.835Z,9.07
2019-03-09T20:00:41.080Z,8.91
2019-03-09T20:03:14.235Z,8.97
2019-03-09T20:05:47.849Z,8.77
2019-03-09T20:08:21.865Z,8.96
2019-03-09T20:10:55.539Z,9.04
2019-03-09T20:13:29.150Z,8.97
2019-03-09T20:16:02.873Z,8.93
2019-03-09T20:18:36.294Z,8.83
2019-03-09T20:21:09.705Z,8.60
2019-03-09T20:23:43.040Z,8.36
2019-03-09T20:26:16.214Z,8.12
2019-03-09T20:28:50.518Z,8.03
2019-03-09T20:31:23.374Z,8.11
2019-03-09T20:33:56.502Z,8.27
2019-03-09T20:36:29.571Z,8.41
2019-03-09T20:39:02.766Z,8.43
2019-03-09T20:41:35.497Z,8.34
2019-03-09T20:44:08.805Z,8.38
2019-03-09T20:46:42.340Z,8.16
2019-03-09T20:49:15.399Z,7.91
2019-03-09T20:51:48.768Z,7.66
2019-03-09T20:54:22.269Z,7.45
2019-03-09T20:56:56.420Z,7.24
2019-03-09T20:59:29.852Z,7.15
2019-03-09T21:02:02.964Z,7.14
2019-03-09T21:04:36.518Z,7.48
2019-03-09T21:07:09.867Z,7.55
2019-03-09T21:09:43.203Z,7.68
2019-03-09T21:12:16.117Z,7.77
2019-03-09T21:14:50.220Z,7.91
2019-03-09T21:17:23.215Z,8.02
2019-03-09T21:19:56.301Z,8.02
2019-03-09T21:22:29.662Z,8.04
2019-03-09T21:25:02.404Z,8.10
2019-03-09T21:27:34.916Z,8.05
2019-03-09T21:30:07.644Z,7.95
2019-03-09T21:32:39.397Z,7.82
2019-03-09T21:35:11.601Z,7.72
2019-03-09T21:37:43.415Z,7.62
2019-03-09T21:40:15.583Z,7.51
2019-03-09T21:42:47.455Z,7.31
2019-03-09T21:45:19.580Z,7.17
2019-03-09T21:47:51.663Z,7.09
2019-03-09T21:50:23.482Z,7.18
2019-03-09T21:52:55.355Z,7.26
2019-03-09T21:55:28.630Z,7.16
2019-03-09T21:58:00.512Z,6.99
2019-03-09T22:00:33.106Z,6.88
2019-03-09T22:03:04.990Z,6.81
2019-03-09T22:05:36.911Z,6.74
2019-03-09T22:08:08.792Z,6.64
2019-03-09T22:10:41.076Z,6.50
2019-03-09T22:13:12.997Z,6.42
2019-03-09T22:15:45.174Z,6.33
2019-03-09T22:18:17.260Z,6.27
2019-03-09T22:20:49.065Z,6.24
2019-03-09T22:23:21.293Z,6.30
2019-03-09T22:25:53.407Z,6.30
2019-03-09T22:28:25.754Z,6.35
2019-03-09T22:30:57.775Z,6.34
2019-03-09T22:33:31.033Z,6.33
2019-03-09T22:36:02.905Z,6.15
2019-03-09T22:38:35.533Z,6.01
2019-03-09T22:41:07.402Z,5.84
2019-03-09T22:43:39.237Z,5.69
2019-03-09T22:46:11.062Z,5.56
2019-03-09T22:48:44.359Z,5.43
2019-03-09T22:51:16.014Z,5.38
2019-03-09T22:53:48.159Z,5.38
2019-03-09T22:56:20.856Z,5.41
2019-03-09T22:58:52.626Z,5.40
2019-03-09T23:01:24.982Z,5.31
2019-03-09T23:03:58.040Z,5.24
2019-03-09T23:06:30.057Z,5.17
2019-03-09T23:09:05.834Z,5.11
2019-03-09T23:11:37.449Z,5.08
2019-03-09T23:14:09.339Z,5.10
2019-03-09T23:16:40.860Z,5.11
2019-03-09T23:19:12.586Z,5.11
2019-03-09T23:21:44.740Z,5.13
2019-03-09T23:24:16.549Z,5.09
2019-03-09T23:26:49.060Z,5.26
2019-03-09T23:29:20.819Z,5.52
2019-03-09T23:31:52.591Z,5.73
2019-03-09T23:34:24.384Z,5.89
2019-03-09T23:36:56.205Z,5.88
2019-03-09T23:39:28.081Z,5.83
2019-03-09T23:41:59.920Z,5.85
2019-03-09T23:44:31.687Z,5.86
2019-03-09T23:47:03.563Z,5.92
2019-03-09T23:49:35.330Z,5.95
2019-03-09T23:52:07.155Z,5.94
2019-03-09T23:54:41.592Z,5.97
2019-03-09T23:57:13.142Z,6.02
2019-03-09T23:59:44.874Z,6.04
